Time;durP1;ratioP1;P1;durP2;ratioP2;P2;SDS_P1;SDS_P2;PMS_P1;PMS_P2;Temp;Humidity;BMP_temperature;BMP_pressure;BME280_temperature;BME280_humidity;BME280_pressure;Samples;Min_cycle;Max_cycle;Signal;HPM_P1;HPM_P2
2022/09/08 00:00:14;;;;;;;11.00;4.28;;;;;;;11.66;52.84;100652.60;1768872;81;21173;-82
2022/09/08 00:03:22;;;;;;;9.78;3.90;;;;;;;11.80;52.63;100651.02;1758320;81;21185;-81
2022/09/08 00:06:22;;;;;;;11.90;4.72;;;;;;;11.73;52.78;100648.14;1757808;81;21832;-82
2022/09/08 00:09:30;;;;;;;12.82;5.47;;;;;;;11.65;53.50;100650.90;1764841;81;21233;-82
2022/09/08 00:12:37;;;;;;;12.70;4.47;;;;;;;11.86;53.48;100650.37;1765107;81;21201;-82
2022/09/08 00:15:44;;;;;;;10.23;4.30;;;;;;;11.94;53.01;100655.28;1765203;81;21197;-81
2022/09/08 00:18:50;;;;;;;11.48;4.95;;;;;;;11.91;52.54;100644.70;1764005;81;21182;-80
2022/09/08 00:21:49;;;;;;;10.90;5.03;;;;;;;11.88;52.38;100640.93;1762592;81;21197;-81
2022/09/08 00:24:42;;;;;;;8.33;4.17;;;;;;;11.87;52.45;100636.48;1750294;81;21183;-81
2022/09/08 00:27:49;;;;;;;8.93;4.60;;;;;;;11.76;52.84;100633.59;1712605;83;21225;-81
2022/09/08 00:30:58;;;;;;;9.35;5.47;;;;;;;11.84;52.58;100628.61;1743818;82;21310;-81
2022/09/08 00:34:02;;;;;;;15.05;5.37;;;;;;;11.77;52.89;100626.22;1742685;82;21193;-83
2022/09/08 00:37:01;;;;;;;11.28;4.70;;;;;;;11.89;52.93;100630.81;1742170;82;21189;-83
2022/09/08 00:40:06;;;;;;;11.30;4.85;;;;;;;11.87;52.71;100626.89;1712372;83;21268;-83
2022/09/08 00:43:13;;;;;;;11.90;4.62;;;;;;;11.91;52.29;100626.87;1742045;82;21141;-83
2022/09/08 00:46:23;;;;;;;13.10;4.65;;;;;;;11.83;51.98;100617.31;1747001;82;21223;-83
2022/09/08 00:49:28;;;;;;;9.45;4.15;;;;;;;11.70;51.85;100620.56;1739374;82;21251;-83
2022/09/08 00:52:29;;;;;;;6.83;4.03;;;;;;;11.68;51.48;100620.42;1757940;81;21225;-83
2022/09/08 00:55:21;;;;;;;7.50;3.77;;;;;;;11.50;51.81;100625.59;1746757;82;21137;-82
2022/09/08 00:58:26;;;;;;;7.72;4.90;;;;;;;11.59;51.58;100624.21;1754269;81;21197;-82
2022/09/08 01:01:25;;;;;;;9.65;4.85;;;;;;;11.41;51.93;100628.01;1727740;83;21253;-81
2022/09/08 01:04:31;;;;;;;8.40;4.40;;;;;;;11.51;51.88;100622.34;1726591;83;21234;-82
2022/09/08 01:15:06;;;;;;;8.65;4.67;;;;;;;11.58;52.01;100623.87;1791015;80;21177;-81
2022/09/08 01:18:11;;;;;;;14.93;4.85;;;;;;;11.63;51.50;100620.95;1771580;81;21197;-82
2022/09/08 01:21:40;;;;;;;11.50;5.92;;;;;;;11.59;51.32;100629.69;1783463;80;21579;-82
2022/09/08 01:25:13;;;;;;;16.12;5.58;;;;;;;11.57;51.27;100628.99;1773469;80;21140;-82
2022/09/08 01:28:39;;;;;;;17.42;5.28;;;;;;;11.48;51.45;100633.14;1770143;81;21367;-82
2022/09/08 01:31:47;;;;;;;13.32;5.55;;;;;;;11.35;51.90;100628.72;1762744;81;21804;-83
2022/09/08 01:34:53;;;;;;;9.98;5.95;;;;;;;11.39;51.84;100621.86;1758130;81;21249;-81
2022/09/08 01:37:58;;;;;;;20.23;6.50;;;;;;;11.35;52.00;100619.13;1755893;81;21767;-82
2022/09/08 01:41:03;;;;;;;12.33;6.10;;;;;;;11.32;52.30;100615.88;1756536;81;21189;-82
2022/09/08 01:44:09;;;;;;;16.10;5.85;;;;;;;11.40;52.29;100613.98;1754034;80;21190;-81
2022/09/08 01:47:15;;;;;;;9.75;5.92;;;;;;;11.39;52.50;100605.43;1756102;80;21195;-81
2022/09/08 01:50:20;;;;;;;12.33;6.12;;;;;;;11.00;53.84;100617.09;1755356;81;21249;-82
2022/09/08 01:53:26;;;;;;;11.90;5.97;;;;;;;11.31;53.77;100616.91;1756486;81;21214;-82
2022/09/08 01:56:32;;;;;;;10.25;5.90;;;;;;;11.32;53.51;100607.66;1757046;81;21198;-82
2022/09/08 01:59:37;;;;;;;14.35;6.15;;;;;;;11.45;53.19;100601.98;1755120;81;21774;-82
2022/09/08 02:02:43;;;;;;;10.90;5.47;;;;;;;11.63;52.89;100603.66;1755663;81;21174;-81
2022/09/08 02:05:49;;;;;;;14.38;6.17;;;;;;;11.70;52.61;100595.05;1756860;81;21754;-82
2022/09/08 02:09:00;;;;;;;13.60;6.03;;;;;;;11.77;52.42;100597.44;1751309;81;21254;-82
2022/09/08 02:12:06;;;;;;;13.68;6.20;;;;;;;11.80;52.02;100600.33;1742685;82;21195;-82
2022/09/08 02:15:13;;;;;;;13.83;5.85;;;;;;;11.87;51.70;100594.00;1742808;82;21191;-82
2022/09/08 02:18:20;;;;;;;12.82;6.05;;;;;;;11.78;51.54;100596.41;1741186;82;21205;-82
2022/09/08 02:21:27;;;;;;;15.20;7.00;;;;;;;11.81;51.44;100596.06;1741082;82;21189;-81
2022/09/08 02:24:32;;;;;;;16.48;6.78;;;;;;;11.80;51.84;100597.06;1741675;82;21208;-82
2022/09/08 02:27:39;;;;;;;13.85;7.58;;;;;;;11.85;52.00;100590.56;1742157;82;21851;-82
2022/09/08 02:30:44;;;;;;;15.58;6.97;;;;;;;11.82;51.82;100587.32;1801656;79;21187;-81
2022/09/08 02:33:51;;;;;;;17.15;7.70;;;;;;;11.77;51.38;100591.95;1800458;79;22058;-81
2022/09/08 02:36:57;;;;;;;12.93;6.40;;;;;;;11.78;50.89;100589.55;1800245;79;21206;-81
2022/09/08 02:40:03;;;;;;;22.82;6.83;;;;;;;11.66;51.26;100595.06;1800155;79;21130;-81
2022/09/08 02:43:10;;;;;;;14.95;6.87;;;;;;;11.64;51.73;100587.55;1801960;79;21206;-82
2022/09/08 02:46:15;;;;;;;13.20;6.87;;;;;;;11.59;51.96;100582.59;1800205;79;21186;-82
2022/09/08 02:49:20;;;;;;;16.65;8.03;;;;;;;11.64;52.30;100584.81;1800130;79;21230;-82
2022/09/08 02:52:20;;;;;;;15.53;6.72;;;;;;;11.73;52.26;100580.48;1800447;79;21202;-81
2022/09/08 02:55:12;;;;;;;19.15;7.53;;;;;;;11.71;52.58;100583.05;1801364;79;21191;-81
2022/09/08 02:58:18;;;;;;;11.85;7.03;;;;;;;11.65;53.02;100583.77;1801886;79;21175;-82
2022/09/08 03:01:18;;;;;;;13.62;5.20;;;;;;;11.60;53.17;100579.34;1802032;79;21195;-81
2022/09/08 03:04:24;;;;;;;14.15;6.78;;;;;;;11.53;53.02;100575.09;1801677;79;21186;-81
2022/09/08 03:07:30;;;;;;;13.48;6.90;;;;;;;11.57;52.87;100581.05;1801523;79;21250;-82
2022/09/08 03:10:36;;;;;;;19.40;7.05;;;;;;;11.56;52.78;100576.61;1803766;79;21202;-81
2022/09/08 03:13:42;;;;;;;13.35;6.35;;;;;;;11.58;52.54;100578.67;1809867;79;21194;-82
2022/09/08 03:16:47;;;;;;;16.27;6.90;;;;;;;11.55;52.44;100583.98;1809662;79;21169;-82
2022/09/08 03:19:56;;;;;;;14.65;7.40;;;;;;;11.48;52.21;100584.36;1808662;79;21244;-81
2022/09/08 03:23:01;;;;;;;13.55;7.42;;;;;;;11.35;52.42;100588.15;1809644;79;21228;-81
2022/09/08 03:26:17;;;;;;;15.90;6.83;;;;;;;11.52;52.22;100582.95;1808291;79;21223;-82
2022/09/08 03:29:23;;;;;;;16.02;7.12;;;;;;;11.46;52.48;100585.87;1810002;78;21123;-82
2022/09/08 03:32:29;;;;;;;16.82;7.03;;;;;;;11.40;52.52;100585.22;1811698;78;21201;-83
2022/09/08 03:35:34;;;;;;;17.30;7.22;;;;;;;11.30;52.87;100585.09;1810188;79;21158;-83
2022/09/08 03:38:41;;;;;;;15.48;7.20;;;;;;;11.30;53.22;100581.83;1809946;79;21240;-82
2022/09/08 03:41:47;;;;;;;16.17;7.60;;;;;;;11.36;53.46;100578.38;1810248;79;21700;-82
2022/09/08 03:44:52;;;;;;;20.50;6.55;;;;;;;11.46;53.71;100576.30;1810309;79;21169;-82
2022/09/08 03:47:58;;;;;;;21.95;7.08;;;;;;;11.67;53.76;100577.62;1810126;78;21705;-81
2022/09/08 03:51:04;;;;;;;22.75;7.12;;;;;;;11.79;53.99;100580.30;1809085;79;21518;-82
2022/09/08 03:57:34;;;;;;;17.85;6.80;;;;;;;12.08;53.32;100580.19;1810141;79;21403;-82
2022/09/08 04:00:39;;;;;;;14.25;6.20;;;;;;;12.16;53.85;100578.26;1809750;79;21173;-82
2022/09/08 04:03:46;;;;;;;16.85;6.10;;;;;;;12.31;54.08;100574.74;1810328;79;21185;-81
2022/09/08 04:06:52;;;;;;;14.23;5.90;;;;;;;12.52;54.19;100573.58;1810135;79;21209;-81
2022/09/08 04:10:01;;;;;;;13.40;5.70;;;;;;;12.83;53.71;100572.12;1809759;78;21375;-83
2022/09/08 04:13:07;;;;;;;14.00;6.10;;;;;;;12.87;53.65;100573.45;1811547;79;21213;-81
2022/09/08 04:16:13;;;;;;;11.70;6.00;;;;;;;12.92;53.65;100577.88;1811523;79;21582;-81
2022/09/08 04:19:19;;;;;;;16.93;6.00;;;;;;;13.17;53.39;100583.13;1811622;79;21201;-81
2022/09/08 04:22:25;;;;;;;18.73;6.03;;;;;;;13.40;53.21;100589.45;1811674;79;21228;-81
2022/09/08 04:25:31;;;;;;;12.98;5.90;;;;;;;13.74;52.66;100585.32;1814652;77;21767;-82
2022/09/08 04:28:36;;;;;;;15.38;6.60;;;;;;;13.95;52.20;100586.75;1811946;79;21731;-82
2022/09/08 04:31:42;;;;;;;12.13;4.47;;;;;;;14.16;52.01;100584.59;1810223;79;21209;-81
2022/09/08 04:34:49;;;;;;;12.93;4.50;;;;;;;14.34;52.29;100591.03;1810185;78;21244;-81
2022/09/08 04:37:55;;;;;;;11.95;4.72;;;;;;;14.52;52.23;100591.48;1812829;79;21468;-81
2022/09/08 04:41:01;;;;;;;13.98;4.10;;;;;;;14.70;52.17;100598.45;1819004;77;21141;-81
2022/09/08 04:44:07;;;;;;;12.82;5.40;;;;;;;14.90;52.17;100595.88;1844765;77;21744;-81
2022/09/08 04:47:13;;;;;;;16.73;4.62;;;;;;;15.05;52.35;100597.49;1839424;77;21216;-81
2022/09/08 04:50:18;;;;;;;13.85;4.12;;;;;;;15.15;52.56;100601.81;1809338;77;21232;-80
2022/09/08 04:53:25;;;;;;;19.12;4.22;;;;;;;15.25;52.91;100607.86;1810958;79;21192;-81
2022/09/08 04:56:31;;;;;;;10.53;4.83;;;;;;;15.63;52.33;100614.39;1810045;77;21204;-82
2022/09/08 04:59:38;;;;;;;10.40;3.65;;;;;;;15.74;52.13;100614.70;1810576;79;21231;-81
2022/09/08 05:02:46;;;;;;;15.83;4.20;;;;;;;16.01;51.56;100620.37;1811131;79;21187;-81
2022/09/08 05:05:52;;;;;;;12.85;4.25;;;;;;;16.29;50.65;100619.77;1818560;77;22285;-81
2022/09/08 05:09:00;;;;;;;10.88;3.75;;;;;;;16.59;48.93;100616.66;1818016;77;21171;-82
2022/09/08 05:12:05;;;;;;;8.55;3.05;;;;;;;16.67;48.47;100613.72;1815500;77;21221;-82
2022/09/08 05:15:12;;;;;;;20.35;4.00;;;;;;;16.88;48.20;100618.78;1809630;77;21202;-80
2022/09/08 05:18:18;;;;;;;9.40;3.85;;;;;;;16.98;47.76;100623.36;1801366;78;21808;-80
2022/09/08 05:21:23;;;;;;;12.13;3.75;;;;;;;17.29;47.26;100618.60;1804569;77;21503;-81
2022/09/08 05:24:31;;;;;;;15.55;4.62;;;;;;;17.50;46.97;100614.75;1809642;77;21173;-81
2022/09/08 05:27:37;;;;;;;17.27;4.83;;;;;;;17.63;46.50;100608.67;1805084;77;21306;-81
2022/09/08 05:30:46;;;;;;;10.08;3.50;;;;;;;17.86;45.88;100617.06;1804508;78;21232;-81
2022/09/08 05:34:01;;;;;;;7.12;3.50;;;;;;;18.09;45.57;100613.27;1806666;78;21158;-83
2022/09/08 05:37:09;;;;;;;13.40;4.22;;;;;;;18.36;45.45;100610.41;1807750;78;21161;-82
2022/09/08 05:40:19;;;;;;;8.10;3.92;;;;;;;18.60;45.01;100604.64;1813585;78;21178;-81
2022/09/08 05:43:44;;;;;;;9.20;3.98;;;;;;;18.81;44.23;100611.23;1807765;78;21614;-81
2022/09/08 05:46:58;;;;;;;11.35;4.17;;;;;;;19.06;43.55;100611.30;1797531;78;21196;-82
2022/09/08 05:50:04;;;;;;;13.38;4.55;;;;;;;19.31;42.81;100608.52;1808869;78;21232;-81
2022/09/08 05:53:10;;;;;;;14.18;5.03;;;;;;;19.50;42.65;100602.48;1806554;78;21783;-82
2022/09/08 05:56:19;;;;;;;11.45;5.35;;;;;;;19.66;42.46;100609.39;1806911;78;21183;-81
2022/09/08 05:59:24;;;;;;;17.25;6.42;;;;;;;19.83;42.01;100604.11;1805992;77;21129;-82
2022/09/08 06:02:36;;;;;;;11.10;5.85;;;;;;;20.11;41.26;100610.52;1806318;78;21152;-81
2022/09/08 06:05:44;;;;;;;10.82;5.83;;;;;;;20.19;40.93;100614.92;1806907;78;21190;-82
2022/09/08 06:08:42;;;;;;;15.72;5.67;;;;;;;20.35;40.56;100615.67;1803734;78;21197;-81
2022/09/08 06:11:51;;;;;;;15.68;5.30;;;;;;;20.54;39.93;100604.86;1810049;78;22585;-82
2022/09/08 06:15:01;;;;;;;10.53;4.67;;;;;;;20.76;39.24;100608.53;1752575;81;21213;-81
2022/09/08 06:18:14;;;;;;;14.18;5.30;;;;;;;20.99;38.41;100600.27;1811451;78;21161;-80
2022/09/08 06:21:28;;;;;;;12.43;4.70;;;;;;;21.11;38.14;100601.12;1809866;78;21195;-82
2022/09/08 06:24:43;;;;;;;13.48;5.10;;;;;;;21.35;37.37;100601.19;1812993;78;21064;-82
2022/09/08 06:28:10;;;;;;;13.70;5.03;;;;;;;21.55;36.82;100601.70;1806052;78;21538;-80
2022/09/08 06:31:16;;;;;;;13.62;5.25;;;;;;;21.47;36.14;100609.56;1805457;78;21166;-82
2022/09/08 06:34:34;;;;;;;10.63;5.33;;;;;;;21.59;36.07;100609.00;1821736;77;21176;-82
2022/09/08 06:38:01;;;;;;;18.20;5.42;;;;;;;21.75;35.45;100608.84;1748844;80;21252;-82
2022/09/08 06:41:31;;;;;;;12.37;5.58;;;;;;;22.01;35.18;100602.73;1815347;77;21196;-82
2022/09/08 06:44:38;;;;;;;9.80;4.62;;;;;;;22.08;35.04;100606.25;1817728;78;21196;-81
2022/09/08 06:47:48;;;;;;;9.65;4.92;;;;;;;22.12;35.13;100609.44;1805250;77;21204;-81
2022/09/08 06:51:34;;;;;;;22.53;5.33;;;;;;;22.32;34.46;100607.63;1806911;77;22480;-81
2022/09/08 06:54:50;;;;;;;10.58;5.22;;;;;;;22.10;34.84;100608.23;1804791;77;21734;-81
2022/09/08 06:58:14;;;;;;;15.15;4.92;;;;;;;22.58;34.30;100612.61;1804462;77;21224;-81
2022/09/08 07:01:40;;;;;;;13.78;5.35;;;;;;;22.73;33.82;100609.30;1809713;77;21169;-82
2022/09/08 07:08:12;;;;;;;18.80;5.20;;;;;;;22.95;33.43;100608.89;1811415;78;21812;-82
2022/09/08 07:11:59;;;;;;;18.05;6.12;;;;;;;23.20;33.22;100615.50;1804594;79;22072;-82
2022/09/08 07:15:45;;;;;;;9.68;5.37;;;;;;;23.29;33.21;100618.72;1805068;77;21182;-82
2022/09/08 07:19:06;;;;;;;9.08;4.80;;;;;;;23.17;32.09;100622.97;1812251;78;21209;-82
2022/09/08 07:22:43;;;;;;;8.55;3.62;;;;;;;23.23;32.08;100617.47;1823527;78;21752;-82
2022/09/08 07:26:00;;;;;;;8.30;3.80;;;;;;;23.26;31.80;100619.77;1759265;81;21198;-81
2022/09/08 07:29:15;;;;;;;14.38;3.80;;;;;;;23.44;31.02;100613.39;1803512;78;21166;-81
2022/09/08 07:32:28;;;;;;;10.72;4.00;;;;;;;23.49;31.02;100608.44;1804815;77;21915;-81
2022/09/08 07:35:40;;;;;;;10.48;3.95;;;;;;;23.55;31.08;100603.23;1814203;78;21143;-82
2022/09/08 07:38:53;;;;;;;10.05;3.45;;;;;;;23.83;30.79;100605.08;1771295;78;21224;-81
2022/09/08 07:42:02;;;;;;;7.75;3.35;;;;;;;23.90;30.66;100609.95;1809138;78;21174;-82
2022/09/08 07:45:11;;;;;;;11.95;3.30;;;;;;;23.91;30.03;100614.98;1804136;78;21216;-82
2022/09/08 07:48:55;;;;;;;7.78;3.50;;;;;;;23.98;29.91;100606.69;1807825;78;21165;-81
2022/09/08 07:52:22;;;;;;;18.65;3.42;;;;;;;23.79;29.81;100605.85;1811407;77;21716;-82
2022/09/08 07:55:48;;;;;;;13.08;3.50;;;;;;;23.74;30.08;100600.19;1810361;77;21145;-81
2022/09/08 07:59:33;;;;;;;4.85;3.60;;;;;;;23.79;29.02;100596.92;1811482;77;21779;-81
2022/09/08 08:03:07;;;;;;;4.72;3.20;;;;;;;23.67;29.32;100597.04;1807610;77;21172;-82
2022/09/08 08:06:20;;;;;;;15.18;3.30;;;;;;;23.93;28.81;100591.26;1806958;77;21454;-81
2022/09/08 08:09:57;;;;;;;11.18;3.55;;;;;;;23.77;29.45;100588.52;1812637;77;21138;-81
2022/09/08 08:13:43;;;;;;;5.67;3.55;;;;;;;23.86;28.97;100586.42;1759076;79;21759;-81
2022/09/08 08:16:59;;;;;;;6.62;3.17;;;;;;;23.72;28.83;100583.70;1803070;79;21799;-81
2022/09/08 08:20:49;;;;;;;7.33;3.80;;;;;;;23.95;28.85;100577.89;1801811;77;21152;-80
2022/09/08 08:24:13;;;;;;;7.97;3.12;;;;;;;24.29;28.64;100579.72;1816410;77;22350;-81
2022/09/08 08:27:36;;;;;;;19.35;3.60;;;;;;;24.32;28.62;100574.98;1744528;80;21737;-82
2022/09/08 08:30:49;;;;;;;10.80;3.58;;;;;;;24.39;28.57;100581.27;1803261;78;21772;-81
2022/09/08 08:34:10;;;;;;;8.30;3.40;;;;;;;24.43;28.31;100578.25;1767778;78;21193;-81
2022/09/08 08:37:20;;;;;;;7.60;3.58;;;;;;;24.49;28.19;100574.40;1757026;81;21797;-82
2022/09/08 08:40:56;;;;;;;16.02;4.17;;;;;;;24.29;27.89;100577.77;1807294;78;21157;-81
2022/09/08 08:44:30;;;;;;;8.33;4.03;;;;;;;24.49;27.63;100575.80;1813034;78;21168;-81
2022/09/08 08:48:00;;;;;;;14.10;3.40;;;;;;;24.47;27.74;100576.63;1787445;78;21204;-81
2022/09/08 08:51:38;;;;;;;9.38;3.40;;;;;;;24.48;27.25;100576.91;1804959;78;21234;-82
2022/09/08 08:55:16;;;;;;;8.63;3.25;;;;;;;24.26;27.62;100566.26;1811996;78;21201;-80
2022/09/08 08:58:51;;;;;;;4.65;3.33;;;;;;;24.10;28.12;100562.44;1812788;78;21785;-82
2022/09/08 09:02:36;;;;;;;7.40;3.45;;;;;;;24.11;28.17;100555.73;1758452;80;21217;-80
2022/09/08 09:05:55;;;;;;;8.23;3.50;;;;;;;24.15;28.23;100552.16;1821256;78;21173;-82
2022/09/08 09:09:30;;;;;;;8.40;3.42;;;;;;;24.21;28.22;100547.48;1811877;78;21152;-81
2022/09/08 09:12:57;;;;;;;7.95;3.45;;;;;;;24.25;28.43;100550.60;1803329;78;21135;-82
2022/09/08 09:16:16;;;;;;;13.48;3.42;;;;;;;24.35;28.45;100543.73;1813399;78;21280;-82
2022/09/08 09:20:03;;;;;;;7.62;3.37;;;;;;;24.41;28.28;100544.94;1816342;77;21179;-82
2022/09/08 09:23:29;;;;;;;6.95;2.52;;;;;;;24.48;28.43;100546.16;1817191;78;21176;-82
2022/09/08 09:26:41;;;;;;;7.75;3.65;;;;;;;24.53;28.01;100537.82;1759252;80;21220;-82
2022/09/08 09:29:47;;;;;;;8.98;3.50;;;;;;;24.52;27.40;100538.94;1816246;78;21197;-82
2022/09/08 09:33:04;;;;;;;6.93;3.27;;;;;;;24.60;27.84;100541.79;1803717;78;21170;-83
2022/09/08 09:36:36;;;;;;;6.03;3.20;;;;;;;24.58;28.03;100549.05;1813503;78;21236;-83
2022/09/08 09:40:18;;;;;;;12.82;3.02;;;;;;;24.60;27.71;100547.38;1806786;78;21165;-81
2022/09/08 09:43:30;;;;;;;12.73;3.50;;;;;;;24.61;27.38;100536.52;1814240;78;21177;-81
2022/09/08 09:47:17;;;;;;;8.20;2.98;;;;;;;24.71;27.73;100550.04;1809458;78;21904;-81
2022/09/08 09:50:54;;;;;;;5.17;2.83;;;;;;;24.87;27.02;100553.82;1813982;78;22445;-81
2022/09/08 09:54:23;;;;;;;7.53;2.98;;;;;;;24.96;27.30;100551.39;1810643;78;21260;-82
2022/09/08 09:58:08;;;;;;;10.50;3.90;;;;;;;25.05;26.83;100545.59;1788706;78;21201;-82
2022/09/08 10:01:38;;;;;;;5.37;3.33;;;;;;;25.07;27.70;100548.99;1815527;78;21197;-83
2022/09/08 10:05:06;;;;;;;7.00;3.87;;;;;;;24.94;27.36;100550.83;1804471;78;21240;-80
2022/09/08 10:08:29;;;;;;;13.27;3.87;;;;;;;24.85;27.97;100549.06;1820762;78;22360;-81
2022/09/08 10:12:16;;;;;;;9.00;4.00;;;;;;;24.65;28.37;100555.27;1775756;78;21197;-82
2022/09/08 10:15:54;;;;;;;8.80;3.87;;;;;;;24.71;27.53;100547.80;1744369;80;21188;-82
2022/09/08 10:19:39;;;;;;;5.65;3.62;;;;;;;25.06;27.00;100547.28;1808760;78;21161;-81
2022/09/08 10:23:04;;;;;;;8.15;3.40;;;;;;;25.21;26.84;100550.79;1807438;77;21814;-81
2022/09/08 10:26:45;;;;;;;11.10;3.50;;;;;;;25.35;26.85;100545.02;1753480;80;21286;-81
2022/09/08 10:29:58;;;;;;;8.43;3.42;;;;;;;25.44;26.25;100548.17;1815126;78;21118;-81
2022/09/08 10:33:34;;;;;;;11.65;3.25;;;;;;;25.57;25.90;100539.86;1803530;77;21138;-82
2022/09/08 10:37:03;;;;;;;8.00;3.10;;;;;;;25.72;25.49;100536.59;1811968;78;21165;-81
2022/09/08 10:40:42;;;;;;;6.25;2.70;;;;;;;25.85;24.42;100528.85;1782096;78;21739;-82
2022/09/08 10:44:26;;;;;;;6.30;2.72;;;;;;;25.97;25.07;100532.25;1802047;78;21189;-82
2022/09/08 10:48:02;;;;;;;8.30;2.87;;;;;;;26.03;24.86;100537.35;1810081;78;21695;-81
2022/09/08 10:51:25;;;;;;;6.08;2.83;;;;;;;26.04;25.02;100535.67;1746551;80;21938;-81
2022/09/08 10:55:03;;;;;;;8.65;3.17;;;;;;;26.15;24.62;100546.36;1793308;78;21212;-81
2022/09/08 10:58:41;;;;;;;10.45;2.90;;;;;;;26.02;24.73;100548.25;1800462;79;21260;-81
2022/09/08 11:02:08;;;;;;;6.28;2.60;;;;;;;25.85;24.90;100554.07;1803779;78;21201;-81
2022/09/08 11:05:34;;;;;;;5.42;2.90;;;;;;;25.83;24.89;100556.28;1813690;78;21200;-82
2022/09/08 11:09:09;;;;;;;8.50;3.00;;;;;;;25.73;25.05;100549.47;1816501;78;21150;-81
2022/09/08 11:12:37;;;;;;;7.40;2.50;;;;;;;25.76;25.30;100556.54;1805209;78;21223;-82
2022/09/08 11:16:27;;;;;;;8.38;2.83;;;;;;;25.66;25.49;100543.84;1804094;77;21290;-81
2022/09/08 11:19:50;;;;;;;6.62;2.80;;;;;;;25.46;25.78;100548.20;1812181;78;21216;-81
2022/09/08 11:23:31;;;;;;;10.10;3.10;;;;;;;25.38;25.98;100548.69;1805565;77;21169;-82
2022/09/08 11:27:30;;;;;;;7.80;2.42;;;;;;;25.28;26.03;100550.02;1806368;77;22002;-82
2022/09/08 11:30:48;;;;;;;6.80;2.47;;;;;;;25.33;25.84;100540.82;1803642;78;21171;-82
2022/09/08 11:34:26;;;;;;;5.92;2.27;;;;;;;25.17;26.11;100532.31;1726851;78;21186;-82
2022/09/08 11:38:24;;;;;;;5.90;2.25;;;;;;;25.07;25.97;100539.20;1803373;78;21138;-82
2022/09/08 11:41:53;;;;;;;5.50;2.42;;;;;;;25.35;25.60;100534.38;1802620;78;21163;-81
2022/09/08 11:45:18;;;;;;;6.58;2.47;;;;;;;25.36;25.74;100533.26;1806970;78;22084;-81
2022/09/08 11:48:49;;;;;;;11.33;2.15;;;;;;;25.36;25.41;100536.94;1803554;78;21149;-81
2022/09/08 11:52:12;;;;;;;4.85;2.50;;;;;;;25.45;25.35;100537.25;1812873;78;21219;-81
2022/09/08 11:55:40;;;;;;;3.58;1.92;;;;;;;25.43;25.81;100536.69;1739885;81;21312;-81
2022/09/08 11:59:24;;;;;;;13.53;2.70;;;;;;;25.39;25.52;100536.38;1800340;78;21217;-81
2022/09/08 12:03:03;;;;;;;5.47;2.10;;;;;;;25.42;25.92;100537.81;1808911;78;21162;-82
2022/09/08 12:06:35;;;;;;;6.55;2.45;;;;;;;25.44;25.37;100535.56;1808338;78;21712;-81
2022/09/08 12:10:06;;;;;;;16.45;2.42;;;;;;;25.45;25.23;100540.05;1809430;78;21173;-81
2022/09/08 12:13:29;;;;;;;7.03;2.35;;;;;;;25.63;25.88;100533.17;1806776;78;21176;-81
2022/09/08 12:16:56;;;;;;;3.65;2.20;;;;;;;25.69;25.82;100537.15;1806791;77;21193;-81
2022/09/08 12:20:32;;;;;;;4.72;2.22;;;;;;;25.70;25.42;100536.03;1811274;78;21206;-82
2022/09/08 12:24:08;;;;;;;3.75;2.22;;;;;;;25.50;25.14;100526.08;1810904;77;21698;-81
2022/09/08 12:27:43;;;;;;;5.55;2.35;;;;;;;25.49;24.62;100520.20;1809030;78;21724;-82
2022/09/08 12:31:27;;;;;;;6.67;2.50;;;;;;;25.58;25.04;100520.53;1760813;80;21183;-81
2022/09/08 12:34:52;;;;;;;10.70;2.20;;;;;;;25.52;25.40;100514.07;1816018;77;21169;-83
2022/09/08 12:38:06;;;;;;;3.87;2.70;;;;;;;25.50;25.95;100517.67;1820607;78;21208;-83
2022/09/08 12:41:35;;;;;;;4.15;2.15;;;;;;;25.39;26.24;100515.37;1753623;81;21230;-81
2022/09/08 12:45:13;;;;;;;5.47;1.87;;;;;;;25.30;26.74;100520.34;1815335;78;21264;-82
2022/09/08 12:49:03;;;;;;;14.50;2.72;;;;;;;25.24;26.50;100523.11;1801289;79;21158;-81
2022/09/08 12:52:10;;;;;;;10.10;2.00;;;;;;;25.19;26.57;100528.67;1801133;79;21181;-81
2022/09/08 12:55:47;;;;;;;7.78;2.25;;;;;;;24.96;27.24;100524.81;1800855;79;22362;-81
2022/09/08 12:59:05;;;;;;;7.30;2.45;;;;;;;24.96;27.44;100522.02;1800349;79;21271;-82
2022/09/08 13:02:23;;;;;;;10.68;2.22;;;;;;;24.97;26.95;100529.28;1801254;79;21189;-81
2022/09/08 13:05:39;;;;;;;8.28;2.30;;;;;;;24.91;26.88;100526.16;1732908;82;21185;-82
2022/09/08 13:08:48;;;;;;;5.30;2.37;;;;;;;25.03;26.94;100523.17;1801380;79;21185;-82
2022/09/08 13:12:22;;;;;;;7.53;2.85;;;;;;;24.94;26.78;100519.48;1799983;79;21208;-81
2022/09/08 13:15:29;;;;;;;2.72;2.02;;;;;;;25.01;26.59;100518.41;1800058;79;21224;-81
2022/09/08 13:18:32;;;;;;;8.25;2.33;;;;;;;24.91;26.59;100523.37;1733115;82;21220;-82
2022/09/08 13:22:01;;;;;;;16.17;1.98;;;;;;;24.99;26.61;100517.29;1799578;79;21212;-81
2022/09/08 13:25:23;;;;;;;6.60;2.45;;;;;;;25.03;26.08;100522.64;1801444;79;21470;-81
2022/09/08 13:29:08;;;;;;;3.92;2.00;;;;;;;24.94;26.20;100519.48;1781445;79;21248;-81
2022/09/08 13:32:34;;;;;;;7.72;2.10;;;;;;;24.86;26.41;100521.37;1755223;79;21162;-81
2022/09/08 13:36:15;;;;;;;4.95;2.30;;;;;;;24.95;26.66;100516.13;1802845;79;21768;-81
2022/09/08 13:39:42;;;;;;;4.10;1.98;;;;;;;24.81;26.22;100514.89;1802772;79;21827;-82
2022/09/08 13:43:24;;;;;;;6.08;2.20;;;;;;;24.68;26.24;100511.41;1803089;79;21184;-82
2022/09/08 13:46:53;;;;;;;4.50;2.17;;;;;;;24.80;26.32;100513.20;1785340;79;21180;-82
2022/09/08 13:50:50;;;;;;;8.68;2.00;;;;;;;25.07;26.27;100504.22;1801011;79;21224;-81
2022/09/08 13:54:03;;;;;;;7.58;2.30;;;;;;;24.97;26.50;100506.34;1802794;79;21816;-81
2022/09/08 13:57:21;;;;;;;7.67;2.08;;;;;;;24.92;26.65;100509.10;1764394;79;21224;-81
2022/09/08 14:00:28;;;;;;;9.88;2.27;;;;;;;24.88;26.38;100513.54;1800862;79;21272;-81
2022/09/08 14:03:36;;;;;;;5.40;2.25;;;;;;;24.90;26.55;100515.53;1801818;79;21228;-81
2022/09/08 14:06:52;;;;;;;5.65;2.37;;;;;;;24.82;26.46;100527.20;1801890;79;21193;-82
2022/09/08 14:10:31;;;;;;;3.42;2.02;;;;;;;24.72;26.08;100518.16;1732477;82;21251;-82
2022/09/08 14:13:42;;;;;;;3.10;1.62;;;;;;;24.48;26.28;100514.84;1801402;79;21177;-81
2022/09/08 14:16:48;;;;;;;8.93;2.02;;;;;;;24.46;26.50;100512.00;1802569;79;21173;-81
2022/09/08 14:20:34;;;;;;;10.38;2.52;;;;;;;24.51;26.86;100504.22;1802642;79;21768;-81
2022/09/08 14:23:56;;;;;;;8.73;2.08;;;;;;;24.43;27.20;100509.75;1739736;82;21203;-81
2022/09/08 14:27:09;;;;;;;3.00;1.80;;;;;;;24.32;27.16;100521.88;1739817;82;21742;-81
2022/09/08 14:30:27;;;;;;;9.10;2.08;;;;;;;24.25;27.13;100524.05;1739105;82;21299;-81
2022/09/08 14:33:54;;;;;;;3.52;2.02;;;;;;;24.17;27.35;100519.20;1739664;82;21202;-81
2022/09/08 14:37:20;;;;;;;7.75;2.00;;;;;;;24.08;27.66;100516.58;1739732;82;21195;-81
2022/09/08 14:40:33;;;;;;;11.30;2.17;;;;;;;23.91;27.94;100515.27;1754935;81;21759;-81
2022/09/08 14:44:24;;;;;;;10.82;2.22;;;;;;;23.81;27.56;100519.88;1760536;81;21187;-81
2022/09/08 14:47:44;;;;;;;13.50;2.80;;;;;;;23.71;27.73;100524.22;1771027;81;21388;-82
2022/09/08 14:51:27;;;;;;;7.20;2.02;;;;;;;23.51;27.85;100524.42;1832200;76;22213;-82
2022/09/08 14:54:56;;;;;;;10.48;2.65;;;;;;;23.42;28.07;100523.45;1725808;82;21254;-83
2022/09/08 14:58:35;;;;;;;;;;;;;;;23.35;28.46;100520.58;1781147;80;21315;-83
2022/09/08 15:01:46;;;;;;;6.40;2.35;;;;;;;23.34;28.46;100522.52;1756034;80;20231;-82
2022/09/08 15:04:54;;;;;;;14.90;2.70;;;;;;;23.20;28.49;100515.05;1738897;80;21199;-81
2022/09/08 15:08:13;;;;;;;17.77;2.87;;;;;;;23.14;28.82;100515.20;1733202;82;21226;-81
2022/09/08 15:11:35;;;;;;;11.05;2.33;;;;;;;22.97;28.94;100512.44;1733717;82;21216;-81
2022/09/08 15:14:55;;;;;;;7.00;2.50;;;;;;;22.79;29.22;100505.67;1731916;82;21229;-81
2022/09/08 15:18:03;;;;;;;10.63;2.50;;;;;;;22.79;29.51;100507.06;1731941;82;21225;-82
2022/09/08 15:21:24;;;;;;;8.98;2.37;;;;;;;22.69;29.91;100507.18;1733067;82;21247;-81
2022/09/08 15:24:47;;;;;;;7.30;2.85;;;;;;;22.81;29.85;100508.48;1733362;82;21196;-81
2022/09/08 15:27:53;;;;;;;6.03;2.08;;;;;;;22.76;29.99;100501.98;1749105;81;21200;-81
2022/09/08 15:31:25;;;;;;;9.33;1.92;;;;;;;22.57;30.58;100502.20;1731651;82;21251;-81